Terminal Aerodrome Forecast
Issued by NWS

Home | Current Version | Previous Version | Text Only | Print | Product List | Glossary On
Versions: 1 2 3 4 5 6 7 8 9 10 11
000
FTUS42 KTAE 231100
TAFABY
TAF
KABY 231133Z 2312/2412 09006KT P6SM -RA OVC006
     FM231600 16011G15KT 5SM RA BKN006 BKN015
     FM231800 18012G20KT P6SM VCTS BKN015CB BKN030
      TEMPO 2320/2323 VRB20G30KT 2SM +TSRA
     FM240100 20011KT P6SM OVC002=

USA.gov is the U.S. government's official web portal to all federal, state and local government web resources and services.